This is the latest recevied weather packets stored in our database for station/object AD8PA-13. If no packets are shown the sender has not sent any weather packets the latest 10 day(s).
| Time | Temp. | Humidity | Pressure | Rain* | Wind** | Luminosity | Snow |
|---|---|---|---|---|---|---|---|
| 1777407088 | 17.22° C | 64% | 1012 hPa | 0 mm | - | - | - |
| 1777406186 | 16.67° C | 65% | 1012.4 hPa | 0 mm | - | - | - |
| 1777405286 | 16.11° C | 68% | 1012.2 hPa | 0 mm | - | - | - |
| 1777404382 | 16.67° C | 66% | 1012.6 hPa | 0 mm | - | - | - |
| 1777403479 | 16.11° C | 68% | 1012.4 hPa | 0 mm | - | - | - |
| 1777402577 | 15.56° C | 69% | 1012.7 hPa | 0 mm | - | - | - |
| 1777401674 | 15° C | 74% | 1012.8 hPa | 0 mm | - | - | - |
| 1777400775 | 15° C | 74% | 1012.6 hPa | 0 mm | - | - | - |
| 1777399871 | 15° C | 73% | 1012 hPa | 0 mm | - | - | - |
| 1777398969 | 15.56° C | 70% | 1012.1 hPa | 0 mm | - | - | - |
| 1777398065 | 15° C | 74% | 1011.9 hPa | 0 mm | - | - | - |
| 1777397164 | 15° C | 73% | 1011.9 hPa | 0 mm | - | - | - |
| 1777396261 | 15° C | 72% | 1011.8 hPa | 0 mm | - | - | - |
| 1777395360 | 15° C | 75% | 1011.3 hPa | 0 mm | - | - | - |
| 1777394456 | 15° C | 72% | 1011.5 hPa | 0 mm | - | - | - |
| 1777393553 | 15.56° C | 73% | 1011.3 hPa | 0 mm | - | - | - |
| 1777392653 | 16.11° C | 71% | 1011 hPa | 0 mm | - | - | - |
| 1777391750 | 16.11° C | 74% | 1011 hPa | 0 mm | - | - | - |
| 1777390845 | 15.56° C | 75% | 1010.6 hPa | 0 mm | - | - | - |
| 1777389941 | 16.67° C | 72% | 1010.5 hPa | 0 mm | - | - | - |
| 1777389038 | 17.78° C | 72% | 1010 hPa | 0 mm | - | - | - |
| 1777388137 | 17.78° C | 74% | 1010.1 hPa | 0 mm | - | - | - |
| 1777387232 | 16.67° C | 81% | 1009.7 hPa | 0 mm | - | - | - |
| 1777386327 | 17.22° C | 86% | 1009.5 hPa | 0 mm | - | - | - |
| 1777385425 | 17.22° C | 88% | 1009.1 hPa | 0 mm | - | - | - |
* Rain latest hour (hover to see other rain measurements)
** Current wind speed in m/s (hover to see current wind gust speed)